Time;durP1;ratioP1;P1;durP2;ratioP2;P2;SDS_P1;SDS_P2;PMS_P1;PMS_P2;Temp;Humidity;BMP_temperature;BMP_pressure;BME280_temperature;BME280_humidity;BME280_pressure;Samples;Min_cycle;Max_cycle;Signal;HPM_P1;HPM_P2
2022/09/16 00:00:54;;;;;;;4.37;1.83;;;;;;;24.56;100.00;100459.47;2081412;28;20643;-60
2022/09/16 00:01:54;;;;;;;6.00;1.40;;;;;;;24.52;100.00;100459.75;2088669;28;20291;-59
2022/09/16 00:02:56;;;;;;;6.50;1.93;;;;;;;24.56;100.00;100459.47;2083166;28;20201;-59
2022/09/16 00:03:56;;;;;;;7.00;1.90;;;;;;;24.56;100.00;100462.31;2086354;28;20176;-60
2022/09/16 00:04:57;;;;;;;7.17;1.80;;;;;;;24.57;100.00;100469.50;2089564;28;20222;-60
2022/09/16 00:05:57;;;;;;;7.57;1.70;;;;;;;24.58;100.00;100473.88;2089079;28;20681;-60
2022/09/16 00:06:58;;;;;;;5.00;1.57;;;;;;;24.52;100.00;100476.00;2089545;28;20186;-60
2022/09/16 00:07:58;;;;;;;8.33;1.93;;;;;;;24.55;100.00;100460.75;2089640;28;20650;-59
2022/09/16 00:09:02;;;;;;;8.43;1.73;;;;;;;24.25;100.00;100415.53;2082839;28;20216;-59
2022/09/16 00:10:04;;;;;;;5.80;1.73;;;;;;;24.54;100.00;100470.56;2081339;28;20260;-60
2022/09/16 00:11:05;;;;;;;8.20;1.90;;;;;;;24.54;100.00;100453.56;2086473;28;20184;-60
2022/09/16 00:12:05;;;;;;;6.33;1.90;;;;;;;24.50;100.00;100445.38;2091100;28;20259;-59
2022/09/16 00:13:06;;;;;;;6.50;1.87;;;;;;;24.54;100.00;100470.56;2090699;28;20634;-60
2022/09/16 00:14:06;;;;;;;7.90;1.80;;;;;;;23.96;100.00;100381.63;2082995;28;20181;-59
2022/09/16 00:15:08;;;;;;;9.77;1.67;;;;;;;24.58;100.00;100463.34;2090250;28;20203;-60
2022/09/16 00:16:15;;;;;;;4.37;1.50;;;;;;;24.57;100.00;100461.00;2090910;28;20192;-60
2022/09/16 00:17:15;;;;;;;8.73;2.30;;;;;;;24.57;100.00;100469.50;2091262;28;20168;-60
2022/09/16 00:18:16;;;;;;;6.43;1.83;;;;;;;24.59;100.00;100475.44;2086720;28;20666;-60
2022/09/16 00:19:16;;;;;;;11.30;2.27;;;;;;;24.59;100.00;100464.88;2085547;28;20188;-59
2022/09/16 00:20:17;;;;;;;9.43;2.30;;;;;;;24.68;100.00;100470.19;2089709;28;20566;-60
2022/09/16 00:21:17;;;;;;;7.37;2.00;;;;;;;24.72;100.00;100452.88;2082912;28;20227;-60
2022/09/16 00:22:18;;;;;;;8.30;2.00;;;;;;;24.73;100.00;100460.06;2091026;28;20237;-60
2022/09/16 00:23:19;;;;;;;7.80;1.90;;;;;;;24.61;100.00;100431.09;2091031;28;20677;-60
2022/09/16 00:24:19;;;;;;;8.13;1.60;;;;;;;24.80;100.00;100465.13;2086043;28;20183;-60
2022/09/16 00:25:19;;;;;;;8.23;1.93;;;;;;;24.83;100.00;100464.06;2082760;28;20188;-60
2022/09/16 00:26:20;;;;;;;10.80;2.40;;;;;;;24.92;100.00;100461.63;2082890;28;20646;-60
2022/09/16 00:27:20;;;;;;;8.00;1.90;;;;;;;24.90;100.00;100461.41;2082921;28;20267;-59
2022/09/16 00:28:22;;;;;;;10.00;2.10;;;;;;;24.70;100.00;100442.06;2082779;28;20229;-60
2022/09/16 00:29:23;;;;;;;8.57;2.10;;;;;;;24.92;100.00;100469.38;2089170;28;20192;-59
2022/09/16 00:30:23;;;;;;;8.17;2.20;;;;;;;24.90;100.00;100471.97;2095786;28;20187;-60
2022/09/16 00:31:23;;;;;;;7.20;1.77;;;;;;;24.92;100.00;100472.22;2099315;28;20210;-60
2022/09/16 00:32:24;;;;;;;10.17;2.43;;;;;;;24.91;100.00;100470.66;2098110;28;20180;-60
2022/09/16 00:33:25;;;;;;;5.87;1.70;;;;;;;24.79;100.00;100461.53;2090414;28;20249;-60
2022/09/16 00:34:25;;;;;;;9.13;2.23;;;;;;;24.92;100.00;100463.72;2090473;28;20253;-59
2022/09/16 00:35:25;;;;;;;7.70;1.97;;;;;;;24.89;100.00;100468.38;2091015;28;20189;-60
2022/09/16 00:36:26;;;;;;;7.77;2.30;;;;;;;24.95;100.00;100473.97;2096441;28;20186;-60
2022/09/16 00:37:27;;;;;;;9.73;2.27;;;;;;;24.95;100.00;100469.06;2099266;28;20191;-60
2022/09/16 00:38:27;;;;;;;10.93;2.23;;;;;;;25.00;100.00;100464.63;2096608;28;20183;-61
2022/09/16 00:39:29;;;;;;;9.33;2.30;;;;;;;25.00;100.00;100473.91;2090952;28;20186;-61
2022/09/16 00:40:29;;;;;;;11.40;2.23;;;;;;;24.66;100.00;100421.75;2090231;28;20229;-60
2022/09/16 00:41:35;;;;;;;7.47;1.97;;;;;;;24.90;100.00;100461.41;2090478;28;20231;-59
2022/09/16 00:42:37;;;;;;;9.87;2.20;;;;;;;24.91;100.00;100473.50;2082710;28;20185;-60
2022/09/16 00:43:48;;;;;;;9.57;2.07;;;;;;;24.99;100.00;100486.53;2082911;28;20185;-61
2022/09/16 00:45:00;;;;;;;16.63;1.87;;;;;;;25.00;100.00;100495.81;2082734;28;20184;-60
2022/09/16 00:46:04;;;;;;;11.63;1.97;;;;;;;24.54;100.00;100420.34;2098686;28;20649;-59
2022/09/16 00:47:05;;;;;;;9.43;1.80;;;;;;;24.54;100.00;100419.56;2091899;28;20184;-60
2022/09/16 00:48:08;;;;;;;9.33;2.33;;;;;;;25.01;100.00;100494.50;2084775;28;20597;-60
2022/09/16 00:49:19;;;;;;;11.60;2.10;;;;;;;24.74;100.00;100453.09;2087834;28;20181;-59
2022/09/16 00:50:27;;;;;;;11.73;2.30;;;;;;;24.88;100.00;100474.56;2085338;28;20570;-60
2022/09/16 00:51:28;;;;;;;13.10;2.37;;;;;;;24.93;100.00;100487.91;2082659;28;20193;-59
2022/09/16 00:52:30;;;;;;;14.87;2.70;;;;;;;24.96;100.00;100473.44;2082654;28;20719;-60
2022/09/16 00:53:36;;;;;;;10.07;2.20;;;;;;;25.01;100.00;100480.31;2082650;28;20654;-59
2022/09/16 00:54:39;;;;;;;10.43;2.37;;;;;;;25.07;100.00;100484.63;2085288;28;20276;-60
2022/09/16 00:55:40;;;;;;;10.53;2.10;;;;;;;25.13;100.00;100493.06;2090924;28;20179;-59
2022/09/16 00:56:45;;;;;;;11.40;2.43;;;;;;;25.23;100.00;100491.38;2090846;28;20653;-60
2022/09/16 00:57:46;;;;;;;8.80;2.00;;;;;;;25.23;100.00;100506.31;2090596;28;20215;-60
2022/09/16 00:58:52;;;;;;;14.83;2.40;;;;;;;25.26;100.00;100490.31;2090838;28;20195;-59
2022/09/16 00:59:55;;;;;;;9.33;2.07;;;;;;;25.29;100.00;100492.09;2090658;28;20189;-60
2022/09/16 01:00:55;;;;;;;9.30;2.33;;;;;;;25.19;100.00;100471.81;2090887;28;20180;-60
2022/09/16 01:01:59;;;;;;;10.07;2.30;;;;;;;25.12;100.00;100475.28;2090787;28;20298;-60
2022/09/16 01:02:59;;;;;;;11.47;2.23;;;;;;;25.14;100.00;100463.41;2090792;28;20180;-60
2022/09/16 01:04:12;;;;;;;13.23;2.47;;;;;;;25.30;100.00;100490.78;2088360;28;20176;-60
2022/09/16 01:05:21;;;;;;;11.37;2.23;;;;;;;25.28;100.00;100487.72;2082566;28;20165;-60
2022/09/16 01:06:25;;;;;;;9.70;2.30;;;;;;;25.24;100.00;100473.81;2082720;28;20679;-60
2022/09/16 01:07:32;;;;;;;8.80;2.40;;;;;;;25.27;100.00;100489.00;2082505;28;20173;-59
2022/09/16 01:08:32;;;;;;;8.53;2.20;;;;;;;25.23;100.00;100485.72;2082526;28;20226;-60
2022/09/16 01:09:33;;;;;;;9.57;2.33;;;;;;;25.23;100.00;100483.63;2082393;28;20200;-60
2022/09/16 01:10:33;;;;;;;9.63;2.00;;;;;;;25.23;100.00;100482.88;2082521;28;20268;-60
2022/09/16 01:11:34;;;;;;;10.23;2.57;;;;;;;25.24;100.00;100482.31;2082557;28;20256;-60
2022/09/16 01:12:35;;;;;;;12.07;2.10;;;;;;;25.20;100.00;100476.19;2082831;28;20580;-60
2022/09/16 01:13:38;;;;;;;11.67;2.47;;;;;;;24.99;100.00;100452.53;2082618;28;20177;-60
2022/09/16 01:14:54;;;;;;;11.60;2.20;;;;;;;25.11;100.00;100470.13;2082587;28;20180;-60
2022/09/16 01:16:14;;;;;;;9.30;2.40;;;;;;;25.16;100.00;100486.31;2082335;28;20618;-60
2022/09/16 01:17:27;;;;;;;9.37;2.20;;;;;;;25.15;100.00;100490.44;2082496;28;20597;-60
2022/09/16 01:18:58;;;;;;;10.73;2.20;;;;;;;25.13;100.00;100490.97;2082479;28;20173;-60
2022/09/16 01:20:13;;;;;;;14.40;2.30;;;;;;;25.13;100.00;100485.31;2082406;28;20320;-59
2022/09/16 01:21:28;;;;;;;11.33;2.50;;;;;;;25.15;100.00;100481.94;2092072;28;20702;-59
2022/09/16 01:22:44;;;;;;;8.03;1.93;;;;;;;25.10;100.00;100480.72;2098145;28;20216;-59
2022/09/16 01:24:32;;;;;;;9.17;1.90;;;;;;;25.04;100.00;100490.59;2092719;28;20271;-60
2022/09/16 01:25:50;;;;;;;8.57;2.27;;;;;;;24.98;100.00;100487.81;2082541;28;20623;-60
2022/09/16 01:27:17;;;;;;;13.57;2.53;;;;;;;24.94;100.00;100478.09;2081815;28;20206;-60
2022/09/16 01:28:17;;;;;;;10.43;2.20;;;;;;;24.88;100.00;100475.31;2082744;28;20240;-60
2022/09/16 01:29:36;;;;;;;9.43;2.33;;;;;;;24.91;100.00;100477.09;2082263;28;20180;-60
2022/09/16 01:30:48;;;;;;;12.13;2.43;;;;;;;24.29;100.00;100389.75;2086307;28;20571;-60
2022/09/16 01:32:27;;;;;;;13.83;2.33;;;;;;;24.92;100.00;100477.88;2085920;28;20173;-60
2022/09/16 01:33:40;;;;;;;11.17;2.33;;;;;;;24.89;100.00;100476.88;2082561;28;20220;-60
2022/09/16 01:35:03;;;;;;;13.60;2.80;;;;;;;24.89;100.00;100482.56;2082351;28;20167;-60
2022/09/16 01:36:17;;;;;;;9.70;2.37;;;;;;;24.84;100.00;100486.22;2082337;28;20686;-59
2022/09/16 01:37:42;;;;;;;12.33;2.50;;;;;;;24.83;100.00;100486.75;2090548;28;20156;-61
2022/09/16 01:39:27;;;;;;;11.57;2.70;;;;;;;24.18;100.00;100404.03;2090554;28;20176;-59
2022/09/16 01:40:38;;;;;;;11.53;2.10;;;;;;;24.84;100.00;100494.72;2089557;28;20198;-61
2022/09/16 01:42:10;;;;;;;15.47;2.40;;;;;;;24.83;100.00;100496.00;2082925;28;20673;-60
2022/09/16 01:43:20;;;;;;;6.67;2.10;;;;;;;24.75;100.00;100503.59;2083408;28;20181;-60
2022/09/16 01:44:45;;;;;;;9.87;2.20;;;;;;;24.66;100.00;100501.09;2090545;28;20172;-60
2022/09/16 01:45:59;;;;;;;11.57;2.37;;;;;;;24.61;100.00;100487.00;2090396;28;20187;-60
2022/09/16 01:47:17;;;;;;;10.33;2.10;;;;;;;24.60;100.00;100505.28;2090680;28;20179;-60
2022/09/16 01:48:24;;;;;;;8.70;2.50;;;;;;;24.59;100.00;100493.22;2082388;28;20157;-60
2022/09/16 01:49:38;;;;;;;9.90;2.17;;;;;;;24.61;100.00;100496.25;2082379;28;20255;-60
2022/09/16 01:50:45;;;;;;;14.57;3.27;;;;;;;24.60;100.00;100506.06;2082368;28;20153;-60
2022/09/16 01:52:05;;;;;;;8.57;2.33;;;;;;;24.60;100.00;100520.22;2082298;28;20517;-60
2022/09/16 01:53:11;;;;;;;12.73;2.57;;;;;;;24.61;100.00;100535.94;2082298;28;20165;-60
2022/09/16 01:54:17;;;;;;;10.50;2.47;;;;;;;24.46;100.00;100526.28;2082069;28;20184;-59
2022/09/16 01:55:27;;;;;;;15.30;2.80;;;;;;;24.45;100.00;100550.22;2088319;28;20735;-60
2022/09/16 01:56:30;;;;;;;8.93;2.77;;;;;;;24.39;100.00;100547.47;2090358;28;20165;-60
2022/09/16 01:57:43;;;;;;;12.70;2.50;;;;;;;24.35;100.00;100546.19;2090451;28;20199;-60
2022/09/16 01:58:43;;;;;;;13.07;2.43;;;;;;;24.31;100.00;100549.31;2090509;28;20164;-60
2022/09/16 01:59:52;;;;;;;11.23;2.97;;;;;;;23.85;100.00;100486.41;2085502;28;20173;-60
2022/09/16 02:01:00;;;;;;;11.00;2.50;;;;;;;23.91;100.00;100506.97;2082119;28;20201;-61
2022/09/16 02:02:09;;;;;;;17.23;2.77;;;;;;;24.25;100.00;100550.69;2082187;28;20162;-60
2022/09/16 02:03:15;;;;;;;11.40;2.60;;;;;;;24.12;100.00;100534.34;2082101;28;20177;-60
2022/09/16 02:04:22;;;;;;;12.77;3.10;;;;;;;24.18;100.00;100539.94;2082078;28;20165;-60
2022/09/16 02:05:37;;;;;;;10.73;2.57;;;;;;;24.18;100.00;100556.91;2082258;28;20169;-60
2022/09/16 02:06:42;;;;;;;12.53;3.03;;;;;;;24.12;100.00;100565.47;2086665;28;20746;-59
2022/09/16 02:07:49;;;;;;;13.50;3.43;;;;;;;24.09;100.00;100560.84;2090319;28;20180;-60
2022/09/16 02:09:01;;;;;;;15.03;3.17;;;;;;;24.05;100.00;100560.38;2086608;28;20571;-60
2022/09/16 02:10:23;;;;;;;10.87;2.53;;;;;;;24.02;100.00;100564.25;2081428;28;20176;-59
2022/09/16 02:11:25;;;;;;;13.27;2.93;;;;;;;23.99;100.00;100562.47;2081630;28;20203;-59
2022/09/16 02:12:31;;;;;;;14.47;2.40;;;;;;;23.32;100.00;100453.88;2081407;28;20177;-60
2022/09/16 02:13:37;;;;;;;11.07;2.23;;;;;;;23.99;100.00;100545.50;2081537;28;20169;-60
2022/09/16 02:14:41;;;;;;;13.90;2.43;;;;;;;23.97;100.00;100550.94;2086058;28;20184;-60
2022/09/16 02:15:46;;;;;;;12.13;2.90;;;;;;;23.89;100.00;100535.03;2086821;28;20192;-60
2022/09/16 02:16:55;;;;;;;13.47;2.60;;;;;;;23.99;100.00;100554.00;2082040;28;20177;-60
2022/09/16 02:18:09;;;;;;;12.03;2.80;;;;;;;23.98;100.00;100551.69;2082126;28;20240;-60
2022/09/16 02:19:19;;;;;;;9.90;2.43;;;;;;;23.92;100.00;100560.22;2082059;28;20154;-59
2022/09/16 02:20:24;;;;;;;11.17;2.23;;;;;;;23.93;100.00;100558.94;2082077;28;20215;-59
2022/09/16 02:21:28;;;;;;;13.43;2.40;;;;;;;23.89;100.00;100561.25;2084709;28;20212;-60
2022/09/16 02:22:33;;;;;;;16.50;3.20;;;;;;;23.84;100.00;100562.03;2090159;28;20642;-60
2022/09/16 02:23:41;;;;;;;11.33;2.60;;;;;;;23.74;100.00;100557.25;2090260;28;20576;-60
2022/09/16 02:24:46;;;;;;;13.43;2.50;;;;;;;23.34;100.00;100496.53;2089108;28;20171;-60
2022/09/16 02:25:49;;;;;;;14.57;3.07;;;;;;;23.15;100.00;100475.03;2081970;28;20161;-60
2022/09/16 02:26:56;;;;;;;9.37;2.53;;;;;;;23.70;100.00;100554.66;2081878;28;20181;-60
2022/09/16 02:28:01;;;;;;;11.73;2.43;;;;;;;23.54;100.00;100537.81;2090023;28;20662;-60
2022/09/16 02:29:09;;;;;;;13.83;2.60;;;;;;;23.68;100.00;100557.28;2090109;28;20222;-59
2022/09/16 02:30:15;;;;;;;14.17;2.53;;;;;;;23.65;100.00;100561.13;2089808;28;20184;-60
2022/09/16 02:31:19;;;;;;;10.40;2.73;;;;;;;23.12;100.00;100473.25;2090208;28;20267;-60
2022/09/16 02:32:22;;;;;;;12.73;2.73;;;;;;;23.55;100.00;100551.41;2084018;28;20188;-60
2022/09/16 02:33:29;;;;;;;13.03;2.70;;;;;;;23.61;100.00;100554.22;2085820;28;20218;-60
2022/09/16 02:34:36;;;;;;;9.87;2.53;;;;;;;23.62;100.00;100564.25;2089583;28;20164;-60
2022/09/16 02:35:40;;;;;;;15.60;2.87;;;;;;;23.62;100.00;100562.19;2086244;28;20183;-59
2022/09/16 02:36:44;;;;;;;11.93;2.50;;;;;;;23.44;100.00;100537.34;2081960;28;20177;-59
2022/09/16 02:38:17;;;;;;;10.27;2.33;;;;;;;23.64;100.00;100565.25;2082606;28;20173;-60
2022/09/16 02:39:24;;;;;;;10.43;2.60;;;;;;;23.67;100.00;100569.88;2090146;28;20160;-59
2022/09/16 02:40:33;;;;;;;16.07;2.50;;;;;;;23.22;100.00;100514.06;2090205;28;20153;-60
2022/09/16 02:41:38;;;;;;;10.60;2.70;;;;;;;23.66;100.00;100581.72;2086500;28;20746;-60
2022/09/16 02:42:38;;;;;;;12.20;2.87;;;;;;;23.64;100.00;100578.66;2081805;28;20177;-60
2022/09/16 02:43:40;;;;;;;13.83;2.70;;;;;;;23.62;100.00;100579.16;2082375;28;20185;-60
2022/09/16 02:44:43;;;;;;;13.60;2.97;;;;;;;23.66;100.00;100574.00;2089975;28;20204;-59
2022/09/16 02:46:25;;;;;;;11.37;2.50;;;;;;;23.67;100.00;100569.88;2097786;28;20179;-59
2022/09/16 02:47:25;;;;;;;16.17;2.83;;;;;;;23.69;100.00;100566.53;2081866;28;20167;-61
2022/09/16 02:49:02;;;;;;;10.30;2.43;;;;;;;23.69;100.00;100555.97;2081785;28;20256;-60
2022/09/16 02:50:16;;;;;;;10.73;2.53;;;;;;;23.72;100.00;100562.63;2079644;28;20325;-60
2022/09/16 02:51:22;;;;;;;12.60;2.87;;;;;;;23.72;100.00;100562.63;2085233;28;20559;-60
2022/09/16 02:52:42;;;;;;;10.57;2.40;;;;;;;23.74;100.00;100574.97;2089614;28;20234;-59
2022/09/16 02:54:16;;;;;;;15.43;3.37;;;;;;;23.66;100.00;100548.53;2090016;28;20164;-60
2022/09/16 02:55:27;;;;;;;10.97;2.63;;;;;;;23.72;100.00;100565.47;2089039;28;20239;-59
2022/09/16 02:56:38;;;;;;;11.17;2.33;;;;;;;23.73;100.00;100561.34;2089850;28;20195;-60
2022/09/16 02:57:38;;;;;;;14.47;2.90;;;;;;;23.69;100.00;100558.03;2089941;28;20661;-60
2022/09/16 02:58:39;;;;;;;13.73;2.70;;;;;;;23.34;100.00;100496.53;2096726;28;20575;-60
2022/09/16 02:59:41;;;;;;;11.80;3.30;;;;;;;23.76;100.00;100560.31;2098171;28;20174;-60
2022/09/16 03:00:46;;;;;;;16.57;2.77;;;;;;;23.33;100.00;100488.59;2098103;28;20581;-60
2022/09/16 03:01:46;;;;;;;13.30;2.93;;;;;;;23.73;100.00;100550.03;2095765;28;20195;-60
2022/09/16 03:02:47;;;;;;;13.50;2.73;;;;;;;23.75;100.00;100553.88;2089144;28;20187;-60
2022/09/16 03:03:48;;;;;;;9.43;2.70;;;;;;;23.46;100.00;100500.06;2081650;28;20181;-60
2022/09/16 03:04:48;;;;;;;10.77;2.47;;;;;;;23.73;100.00;100552.84;2081655;28;20567;-59
2022/09/16 03:06:07;;;;;;;11.27;2.83;;;;;;;23.73;100.00;100547.97;2081625;28;20187;-61
2022/09/16 03:07:10;;;;;;;14.87;3.33;;;;;;;23.71;100.00;100558.28;2089536;28;20172;-60
2022/09/16 03:08:10;;;;;;;12.00;3.17;;;;;;;23.68;100.00;100557.28;2089902;28;20530;-59
2022/09/16 03:09:13;;;;;;;13.57;2.63;;;;;;;23.69;100.00;100563.72;2089871;28;20195;-59
2022/09/16 03:10:14;;;;;;;14.30;2.90;;;;;;;23.65;100.00;100561.13;2089815;28;20180;-59
2022/09/16 03:11:30;;;;;;;12.23;2.70;;;;;;;23.58;100.00;100558.88;2085789;28;20219;-59
2022/09/16 03:13:08;;;;;;;14.07;2.90;;;;;;;23.42;100.00;100542.78;2081718;28;20169;-60
2022/09/16 03:14:44;;;;;;;10.27;2.67;;;;;;;23.46;100.00;100554.56;2080933;28;20252;-59
2022/09/16 03:15:51;;;;;;;11.80;2.83;;;;;;;23.40;100.00;100556.69;2080264;28;20227;-60
2022/09/16 03:17:20;;;;;;;9.60;2.80;;;;;;;23.35;100.00;100557.47;2088498;28;20180;-60
2022/09/16 03:18:44;;;;;;;10.10;2.60;;;;;;;23.29;100.00;100559.53;2087236;28;20192;-60
2022/09/16 03:20:10;;;;;;;12.00;2.77;;;;;;;23.24;100.00;100560.31;2084129;28;20269;-60
2022/09/16 03:21:17;;;;;;;14.73;2.70;;;;;;;23.23;100.00;100558.03;2089373;28;20164;-60
2022/09/16 03:22:54;;;;;;;13.83;2.80;;;;;;;23.22;100.00;100553.66;2081609;28;20177;-59
2022/09/16 03:24:08;;;;;;;9.03;2.50;;;;;;;23.21;100.00;100560.59;2085368;28;20169;-60
2022/09/16 03:25:35;;;;;;;11.60;3.03;;;;;;;23.22;100.00;100553.66;2089807;28;20209;-60
2022/09/16 03:27:00;;;;;;;12.13;2.77;;;;;;;23.22;100.00;100564.97;2082881;28;20257;-60
2022/09/16 03:28:23;;;;;;;12.73;2.57;;;;;;;23.22;100.00;100557.25;2081400;28;20169;-60
2022/09/16 03:29:33;;;;;;;11.77;2.60;;;;;;;23.25;100.00;100559.06;2081409;28;20196;-59
2022/09/16 03:30:44;;;;;;;10.73;2.63;;;;;;;23.26;100.00;100556.97;2081599;28;20169;-60
2022/09/16 03:32:17;;;;;;;10.33;2.83;;;;;;;23.24;100.00;100563.16;2081752;28;20157;-60
2022/09/16 03:33:33;;;;;;;9.50;2.53;;;;;;;23.26;100.00;100562.63;2086651;28;20183;-60
2022/09/16 03:34:49;;;;;;;11.97;2.33;;;;;;;22.77;100.00;100495.78;2083565;28;20169;-60
2022/09/16 03:35:52;;;;;;;10.40;2.50;;;;;;;23.32;100.00;100571.84;2088316;28;20218;-59
2022/09/16 03:36:58;;;;;;;9.90;2.23;;;;;;;23.33;100.00;100579.06;2089738;28;20172;-59
2022/09/16 03:38:00;;;;;;;14.17;2.63;;;;;;;23.34;100.00;100574.94;2089693;28;20211;-59
2022/09/16 03:39:02;;;;;;;8.53;2.20;;;;;;;23.34;100.00;100581.34;2089600;28;20172;-59
2022/09/16 03:40:09;;;;;;;11.37;2.47;;;;;;;23.33;100.00;100588.31;2085953;28;20239;-59
2022/09/16 03:41:11;;;;;;;12.87;2.40;;;;;;;23.36;100.00;100594.97;2084909;28;20172;-59
2022/09/16 03:42:12;;;;;;;13.53;2.50;;;;;;;23.36;100.00;100595.75;2092328;28;20183;-60
2022/09/16 03:43:15;;;;;;;11.87;2.73;;;;;;;23.37;100.00;100602.94;2096331;28;20675;-60
2022/09/16 03:44:15;;;;;;;13.53;2.53;;;;;;;23.38;100.00;100600.91;2089654;28;20203;-60
2022/09/16 03:45:19;;;;;;;8.07;2.27;;;;;;;23.41;100.00;100605.50;2090109;28;20183;-59
2022/09/16 03:46:20;;;;;;;12.10;2.40;;;;;;;23.46;100.00;100607.53;2091107;28;20192;-59
2022/09/16 03:47:21;;;;;;;9.10;2.90;;;;;;;23.36;100.00;100594.97;2091271;28;20187;-60
2022/09/16 03:48:21;;;;;;;11.67;2.43;;;;;;;23.45;100.00;100606.78;2097335;28;20649;-59
2022/09/16 03:49:21;;;;;;;11.97;3.03;;;;;;;23.47;100.00;100609.06;2091111;28;20216;-60
2022/09/16 03:50:22;;;;;;;13.03;2.57;;;;;;;23.45;100.00;100609.63;2083232;28;20177;-60
2022/09/16 03:51:24;;;;;;;10.63;2.63;;;;;;;23.42;100.00;100609.88;2083448;28;20204;-60
2022/09/16 03:52:24;;;;;;;10.20;2.60;;;;;;;23.41;100.00;100602.69;2091311;28;20541;-60
2022/09/16 03:53:25;;;;;;;11.43;2.70;;;;;;;23.46;100.00;100618.84;2082868;28;20195;-60
2022/09/16 03:54:26;;;;;;;11.57;2.60;;;;;;;23.34;100.00;100603.22;2082916;28;20212;-59
2022/09/16 03:55:26;;;;;;;8.67;2.57;;;;;;;23.43;100.00;100626.31;2083175;28;20213;-60
2022/09/16 03:56:27;;;;;;;9.47;2.40;;;;;;;23.42;100.00;100621.19;2082999;28;20199;-60
2022/09/16 03:57:29;;;;;;;9.90;2.63;;;;;;;23.34;100.00;100614.53;2085483;28;20184;-60
2022/09/16 03:58:29;;;;;;;11.73;2.83;;;;;;;23.30;100.00;100614.81;2091100;28;20180;-60
2022/09/16 03:59:30;;;;;;;11.63;2.47;;;;;;;23.30;100.00;100616.88;2090702;28;20176;-59
2022/09/16 04:00:31;;;;;;;13.63;2.50;;;;;;;23.29;100.00;100613.25;2091202;28;20568;-60
2022/09/16 04:01:32;;;;;;;10.77;2.33;;;;;;;23.29;100.00;100620.97;2091490;28;20285;-60
2022/09/16 04:02:33;;;;;;;9.73;3.07;;;;;;;23.26;100.00;100610.69;2091139;28;20203;-60
2022/09/16 04:03:36;;;;;;;10.43;2.37;;;;;;;;;;2086003;28;20192;-61
2022/09/16 04:04:36;;;;;;;11.70;2.50;;;;;;;23.16;100.00;100610.19;2086736;28;20206;-59
2022/09/16 04:05:37;;;;;;;10.30;2.40;;;;;;;23.06;100.00;100611.78;2088592;28;20203;-60
2022/09/16 04:06:37;;;;;;;11.30;2.60;;;;;;;22.94;100.00;100601.81;2083015;28;20239;-60
2022/09/16 04:07:38;;;;;;;10.03;2.80;;;;;;;22.99;100.00;100614.38;2082994;28;20180;-60
2022/09/16 04:08:38;;;;;;;11.10;2.80;;;;;;;22.99;100.00;100628.50;2090095;28;20192;-60
2022/09/16 04:09:39;;;;;;;9.57;2.53;;;;;;;22.62;100.00;100572.31;2085563;28;20239;-59
2022/09/16 04:10:39;;;;;;;11.27;2.57;;;;;;;22.37;100.00;100513.31;2082896;28;20184;-60
2022/09/16 04:11:40;;;;;;;9.00;2.60;;;;;;;22.23;100.00;100503.06;2082816;28;20241;-60
2022/09/16 04:12:40;;;;;;;13.17;3.07;;;;;;;23.03;100.00;100618.47;2082926;28;20181;-60
2022/09/16 04:13:41;;;;;;;12.40;3.13;;;;;;;22.84;100.00;100606.19;2083083;28;20185;-60
2022/09/16 04:14:41;;;;;;;11.07;2.73;;;;;;;23.09;100.00;100626.94;2082812;28;20181;-59
2022/09/16 04:15:42;;;;;;;9.20;2.30;;;;;;;23.09;100.00;100629.75;2090217;28;20192;-60
2022/09/16 04:16:42;;;;;;;11.00;2.97;;;;;;;23.06;100.00;100625.91;2085482;28;20223;-60
2022/09/16 04:17:43;;;;;;;8.93;2.17;;;;;;;23.11;100.00;100630.00;2086792;28;20195;-61
2022/09/16 04:18:43;;;;;;;12.53;2.40;;;;;;;23.05;100.00;100632.84;2090918;28;20251;-60
2022/09/16 04:19:44;;;;;;;12.93;3.30;;;;;;;23.02;100.00;100633.13;2091144;28;20572;-60
2022/09/16 04:20:44;;;;;;;9.97;2.13;;;;;;;22.98;100.00;100622.06;2091079;28;20182;-61
2022/09/16 04:21:45;;;;;;;9.13;2.30;;;;;;;23.03;100.00;100617.69;2091016;28;20208;-60
2022/09/16 04:22:46;;;;;;;10.80;2.13;;;;;;;23.02;100.00;100619.75;2090489;28;20217;-60
2022/09/16 04:23:47;;;;;;;13.47;2.50;;;;;;;22.54;100.00;100553.59;2090937;28;20204;-60
2022/09/16 04:24:47;;;;;;;8.43;2.27;;;;;;;22.99;100.00;100631.31;2091138;28;20188;-60
2022/09/16 04:26:01;;;;;;;9.73;2.47;;;;;;;22.96;100.00;100629.53;2090787;28;20456;-59
2022/09/16 04:27:02;;;;;;;13.00;2.37;;;;;;;22.93;100.00;100628.50;2090217;28;20180;-60
2022/09/16 04:28:02;;;;;;;10.90;2.30;;;;;;;22.96;100.00;100638.00;2089871;28;20179;-60
2022/09/16 04:29:03;;;;;;;8.40;2.83;;;;;;;22.97;100.00;100637.50;2090645;28;20866;-59
2022/09/16 04:30:04;;;;;;;9.97;2.27;;;;;;;22.73;100.00;100596.97;2090538;28;20378;-60
2022/09/16 04:31:09;;;;;;;10.17;2.40;;;;;;;23.02;100.00;100636.72;2090507;28;20206;-59
2022/09/16 04:32:09;;;;;;;17.63;2.23;;;;;;;23.06;100.00;100645.69;2090907;28;20642;-60
2022/09/16 04:33:10;;;;;;;9.87;2.00;;;;;;;23.07;100.00;100644.41;2086787;28;20197;-60
2022/09/16 04:34:13;;;;;;;11.37;3.07;;;;;;;23.10;100.00;100639.78;2088599;28;20537;-59
2022/09/16 04:35:13;;;;;;;11.20;2.57;;;;;;;23.10;100.00;100642.59;2088428;28;20184;-60
2022/09/16 04:36:16;;;;;;;8.67;2.67;;;;;;;23.11;100.00;100635.66;2090045;28;20180;-59
2022/09/16 04:37:17;;;;;;;11.37;3.27;;;;;;;23.12;100.00;100634.34;2090135;28;20257;-59
2022/09/16 04:38:17;;;;;;;13.47;2.90;;;;;;;23.14;100.00;100646.69;2089407;28;20192;-60
2022/09/16 04:39:18;;;;;;;15.23;3.90;;;;;;;23.14;100.00;100635.38;2089744;28;20580;-60
2022/09/16 04:40:18;;;;;;;12.67;4.57;;;;;;;23.18;100.00;100641.56;2090154;28;20234;-60
2022/09/16 04:41:21;;;;;;;12.23;2.93;;;;;;;23.22;100.00;100649.78;2089857;28;20649;-59
2022/09/16 04:42:22;;;;;;;10.93;2.40;;;;;;;23.16;100.00;100613.03;2089845;28;20237;-59
2022/09/16 04:43:22;;;;;;;12.07;3.07;;;;;;;23.15;100.00;100633.34;2090131;28;20246;-60
2022/09/16 04:44:23;;;;;;;14.07;3.27;;;;;;;23.17;100.00;100631.53;2089120;28;20215;-59
2022/09/16 04:45:23;;;;;;;17.97;8.80;;;;;;;23.14;100.00;100629.72;2089887;28;20204;-60
2022/09/16 04:46:29;;;;;;;11.80;2.97;;;;;;;23.15;100.00;100631.28;2086700;28;20195;-60
2022/09/16 04:47:29;;;;;;;16.07;4.07;;;;;;;23.13;100.00;100635.91;2086210;28;20184;-59
2022/09/16 04:48:32;;;;;;;18.43;4.90;;;;;;;23.11;100.00;100627.94;2089327;28;20188;-60
2022/09/16 04:49:32;;;;;;;28.60;11.10;;;;;;;23.13;100.00;100627.44;2083864;28;20697;-64
2022/09/16 04:50:32;;;;;;;16.03;3.60;;;;;;;23.05;100.00;100612.28;2082208;28;20560;-64
2022/09/16 04:51:33;;;;;;;24.93;5.90;;;;;;;23.14;100.00;100624.06;2084168;28;20662;-64
2022/09/16 04:52:33;;;;;;;34.93;7.73;;;;;;;23.14;100.00;100626.91;2084106;28;20196;-64
2022/09/16 04:53:35;;;;;;;35.00;7.20;;;;;;;22.71;100.00;100571.28;2083356;28;20240;-64
2022/09/16 04:54:36;;;;;;;29.97;7.20;;;;;;;23.15;100.00;100634.13;2082725;28;20196;-64
2022/09/16 04:55:36;;;;;;;25.17;7.00;;;;;;;23.13;100.00;100633.09;2085551;28;20705;-64
2022/09/16 04:56:37;;;;;;;16.33;5.27;;;;;;;23.14;100.00;100638.22;2081947;28;20184;-64
2022/09/16 04:57:38;;;;;;;17.93;4.97;;;;;;;23.13;100.00;100644.41;2083485;28;20249;-64
2022/09/16 04:58:39;;;;;;;17.77;3.23;;;;;;;23.17;100.00;100648.50;2084335;28;20265;-64
2022/09/16 04:59:39;;;;;;;11.80;2.83;;;;;;;23.21;100.00;100637.72;2083609;28;20184;-64
2022/09/16 05:00:40;;;;;;;11.10;2.70;;;;;;;22.89;100.00;100596.94;2081883;28;20187;-64
2022/09/16 05:01:42;;;;;;;11.17;2.77;;;;;;;23.02;100.00;100604.88;2087092;28;20613;-64
2022/09/16 05:02:44;;;;;;;12.00;3.33;;;;;;;23.20;100.00;100641.06;2083738;28;20195;-64
2022/09/16 05:03:47;;;;;;;14.53;2.80;;;;;;;23.21;100.00;100642.59;2084611;28;20203;-64